sensor_id;sensor_type;location;lat;lon;timestamp;pressure;altitude;pressure_sealevel;temperature;humidity
13867;BME280;7003;46.982;15.248;2022-11-21T00:01:18;96600.38;;;1.42;100.00
13867;BME280;7003;46.982;15.248;2022-11-21T00:03:47;96594.38;;;1.42;100.00
13867;BME280;7003;46.982;15.248;2022-11-21T00:06:15;96588.06;;;1.43;100.00
13867;BME280;7003;46.982;15.248;2022-11-21T00:08:42;96592.47;;;1.24;100.00
13867;BME280;7003;46.982;15.248;2022-11-21T00:11:09;96583.50;;;1.06;100.00
13867;BME280;7003;46.982;15.248;2022-11-21T00:13:36;96587.31;;;0.90;100.00
13867;BME280;7003;46.982;15.248;2022-11-21T00:16:05;96579.03;;;1.06;100.00
13867;BME280;7003;46.982;15.248;2022-11-21T00:18:34;96576.19;;;1.27;100.00
13867;BME280;7003;46.982;15.248;2022-11-21T00:21:06;96574.28;;;1.08;100.00
13867;BME280;7003;46.982;15.248;2022-11-21T00:23:36;96574.84;;;1.05;100.00
13867;BME280;7003;46.982;15.248;2022-11-21T00:26:04;96567.59;;;0.97;100.00
13867;BME280;7003;46.982;15.248;2022-11-21T00:28:31;96559.09;;;0.82;100.00
13867;BME280;7003;46.982;15.248;2022-11-21T00:30:59;96564.34;;;0.82;100.00
13867;BME280;7003;46.982;15.248;2022-11-21T00:33:29;96556.31;;;0.73;100.00
13867;BME280;7003;46.982;15.248;2022-11-21T00:35:56;96555.81;;;0.95;100.00
13867;BME280;7003;46.982;15.248;2022-11-21T00:38:27;96561.63;;;0.92;100.00
13867;BME280;7003;46.982;15.248;2022-11-21T00:40:54;96560.88;;;0.86;100.00
13867;BME280;7003;46.982;15.248;2022-11-21T00:43:21;96555.59;;;0.62;100.00
13867;BME280;7003;46.982;15.248;2022-11-21T00:45:51;96555.78;;;0.71;100.00
13867;BME280;7003;46.982;15.248;2022-11-21T00:48:20;96559.19;;;0.71;100.00
13867;BME280;7003;46.982;15.248;2022-11-21T00:50:48;96551.00;;;0.78;100.00
13867;BME280;7003;46.982;15.248;2022-11-21T00:53:17;96545.78;;;0.78;100.00
13867;BME280;7003;46.982;15.248;2022-11-21T00:55:46;96546.28;;;0.80;100.00
13867;BME280;7003;46.982;15.248;2022-11-21T00:58:13;96537.47;;;0.71;100.00
13867;BME280;7003;46.982;15.248;2022-11-21T01:00:43;96535.16;;;0.69;100.00
13867;BME280;7003;46.982;15.248;2022-11-21T01:03:10;96527.94;;;0.56;100.00
13867;BME280;7003;46.982;15.248;2022-11-21T01:05:40;96521.38;;;0.59;100.00
13867;BME280;7003;46.982;15.248;2022-11-21T01:08:07;96522.34;;;0.68;100.00
13867;BME280;7003;46.982;15.248;2022-11-21T01:10:34;96518.75;;;0.59;100.00
13867;BME280;7003;46.982;15.248;2022-11-21T01:13:03;96521.44;;;0.49;100.00
13867;BME280;7003;46.982;15.248;2022-11-21T01:15:30;96522.03;;;0.46;100.00
13867;BME280;7003;46.982;15.248;2022-11-21T01:17:59;96519.88;;;0.53;100.00
13867;BME280;7003;46.982;15.248;2022-11-21T01:20:26;96512.81;;;0.48;100.00
13867;BME280;7003;46.982;15.248;2022-11-21T01:22:56;96520.59;;;0.24;100.00
13867;BME280;7003;46.982;15.248;2022-11-21T01:25:26;96523.72;;;0.26;100.00
13867;BME280;7003;46.982;15.248;2022-11-21T01:27:53;96519.00;;;0.28;100.00
13867;BME280;7003;46.982;15.248;2022-11-21T01:30:21;96520.59;;;0.24;100.00
13867;BME280;7003;46.982;15.248;2022-11-21T01:32:50;96518.31;;;0.47;100.00
13867;BME280;7003;46.982;15.248;2022-11-21T01:35:18;96519.47;;;0.35;100.00
13867;BME280;7003;46.982;15.248;2022-11-21T01:37:46;96525.41;;;0.12;100.00
13867;BME280;7003;46.982;15.248;2022-11-21T01:40:13;96532.38;;;0.27;100.00
13867;BME280;7003;46.982;15.248;2022-11-21T01:42:51;96524.84;;;0.20;100.00
13867;BME280;7003;46.982;15.248;2022-11-21T01:45:54;96514.09;;;0.22;100.00
13867;BME280;7003;46.982;15.248;2022-11-21T01:48:27;96518.56;;;0.21;100.00
13867;BME280;7003;46.982;15.248;2022-11-21T01:50:58;96512.28;;;0.22;100.00
13867;BME280;7003;46.982;15.248;2022-11-21T01:53:28;96512.34;;;0.41;100.00
13867;BME280;7003;46.982;15.248;2022-11-21T01:55:55;96504.44;;;0.51;100.00
13867;BME280;7003;46.982;15.248;2022-11-21T01:58:22;96511.91;;;0.34;100.00
13867;BME280;7003;46.982;15.248;2022-11-21T02:00:54;96521.06;;;0.31;100.00
13867;BME280;7003;46.982;15.248;2022-11-21T02:03:26;96524.19;;;0.33;100.00
13867;BME280;7003;46.982;15.248;2022-11-21T02:05:57;96512.94;;;0.38;100.00
13867;BME280;7003;46.982;15.248;2022-11-21T02:08:25;96509.56;;;0.32;100.00
13867;BME280;7003;46.982;15.248;2022-11-21T02:11:01;96501.69;;;0.32;100.00
13867;BME280;7003;46.982;15.248;2022-11-21T02:13:32;96509.59;;;0.27;100.00
13867;BME280;7003;46.982;15.248;2022-11-21T02:16:01;96495.22;;;0.25;100.00
13867;BME280;7003;46.982;15.248;2022-11-21T02:18:28;96494.44;;;0.29;100.00
13867;BME280;7003;46.982;15.248;2022-11-21T02:21:03;96481.75;;;0.42;100.00
13867;BME280;7003;46.982;15.248;2022-11-21T02:23:36;96478.34;;;0.41;100.00
13867;BME280;7003;46.982;15.248;2022-11-21T02:26:09;96484.13;;;0.67;100.00
13867;BME280;7003;46.982;15.248;2022-11-21T02:28:36;96477.88;;;0.63;100.00
13867;BME280;7003;46.982;15.248;2022-11-21T02:31:03;96472.13;;;0.37;100.00
13867;BME280;7003;46.982;15.248;2022-11-21T02:33:30;96471.78;;;0.44;100.00
13867;BME280;7003;46.982;15.248;2022-11-21T02:35:59;96457.59;;;0.50;100.00
13867;BME280;7003;46.982;15.248;2022-11-21T02:38:28;96437.53;;;0.40;100.00
13867;BME280;7003;46.982;15.248;2022-11-21T02:41:01;96430.81;;;0.58;100.00
13867;BME280;7003;46.982;15.248;2022-11-21T02:43:36;96447.81;;;0.60;100.00
13867;BME280;7003;46.982;15.248;2022-11-21T02:46:04;96460.22;;;0.50;100.00
13867;BME280;7003;46.982;15.248;2022-11-21T02:48:35;96460.72;;;0.52;100.00
13867;BME280;7003;46.982;15.248;2022-11-21T02:51:04;96469.13;;;0.49;100.00
13867;BME280;7003;46.982;15.248;2022-11-21T02:53:31;96458.31;;;0.55;100.00
13867;BME280;7003;46.982;15.248;2022-11-21T02:55:58;96441.84;;;0.31;100.00
13867;BME280;7003;46.982;15.248;2022-11-21T02:58:26;96428.59;;;0.46;100.00
13867;BME280;7003;46.982;15.248;2022-11-21T03:00:54;96427.88;;;0.64;100.00
13867;BME280;7003;46.982;15.248;2022-11-21T03:03:24;96432.00;;;0.70;100.00
13867;BME280;7003;46.982;15.248;2022-11-21T03:05:51;96430.31;;;0.56;100.00
13867;BME280;7003;46.982;15.248;2022-11-21T03:08:18;96425.31;;;0.59;100.00
13867;BME280;7003;46.982;15.248;2022-11-21T03:10:45;96436.31;;;0.32;100.00
13867;BME280;7003;46.982;15.248;2022-11-21T03:13:15;96426.88;;;0.36;100.00
13867;BME280;7003;46.982;15.248;2022-11-21T03:15:44;96433.69;;;0.32;100.00
13867;BME280;7003;46.982;15.248;2022-11-21T03:18:13;96431.94;;;0.52;100.00
13867;BME280;7003;46.982;15.248;2022-11-21T03:20:40;96434.56;;;0.52;100.00
13867;BME280;7003;46.982;15.248;2022-11-21T03:23:11;96430.09;;;0.28;100.00
13867;BME280;7003;46.982;15.248;2022-11-21T03:25:40;96437.94;;;0.28;100.00
13867;BME280;7003;46.982;15.248;2022-11-21T03:28:08;96436.22;;;0.43;100.00
13867;BME280;7003;46.982;15.248;2022-11-21T03:30:35;96427.41;;;0.33;100.00
13867;BME280;7003;46.982;15.248;2022-11-21T03:33:02;96424.88;;;0.23;100.00
13867;BME280;7003;46.982;15.248;2022-11-21T03:35:31;96422.22;;;0.28;100.00
13867;BME280;7003;46.982;15.248;2022-11-21T03:38:00;96419.97;;;0.46;100.00
13867;BME280;7003;46.982;15.248;2022-11-21T03:40:29;96423.13;;;0.43;100.00
13867;BME280;7003;46.982;15.248;2022-11-21T03:43:03;96424.69;;;0.44;100.00
13867;BME280;7003;46.982;15.248;2022-11-21T03:45:33;96432.09;;;0.36;100.00
13867;BME280;7003;46.982;15.248;2022-11-21T03:48:03;96428.09;;;0.44;100.00
13867;BME280;7003;46.982;15.248;2022-11-21T03:50:31;96430.75;;;0.39;100.00
13867;BME280;7003;46.982;15.248;2022-11-21T03:52:59;96438.78;;;0.48;100.00
13867;BME280;7003;46.982;15.248;2022-11-21T03:55:28;96437.53;;;0.40;100.00
13867;BME280;7003;46.982;15.248;2022-11-21T03:57:57;96438.31;;;0.41;100.00
13867;BME280;7003;46.982;15.248;2022-11-21T04:00:24;96433.88;;;0.41;100.00
13867;BME280;7003;46.982;15.248;2022-11-21T04:02:54;96439.69;;;0.38;100.00
13867;BME280;7003;46.982;15.248;2022-11-21T04:05:21;96430.94;;;0.48;100.00
13867;BME280;7003;46.982;15.248;2022-11-21T04:07:49;96437.69;;;0.54;100.00
13867;BME280;7003;46.982;15.248;2022-11-21T04:10:17;96430.88;;;0.53;100.00
13867;BME280;7003;46.982;15.248;2022-11-21T04:12:47;96442.56;;;0.36;100.00
13867;BME280;7003;46.982;15.248;2022-11-21T04:15:14;96434.78;;;0.55;100.00
13867;BME280;7003;46.982;15.248;2022-11-21T04:17:41;96433.00;;;0.51;100.00
13867;BME280;7003;46.982;15.248;2022-11-21T04:20:11;96425.59;;;0.58;100.00
13867;BME280;7003;46.982;15.248;2022-11-21T04:22:38;96437.53;;;0.40;100.00
13867;BME280;7003;46.982;15.248;2022-11-21T04:25:07;96433.66;;;0.37;100.00
13867;BME280;7003;46.982;15.248;2022-11-21T04:27:36;96442.44;;;0.47;100.00
13867;BME280;7003;46.982;15.248;2022-11-21T04:30:05;96436.66;;;0.50;100.00
13867;BME280;7003;46.982;15.248;2022-11-21T04:32:32;96446.25;;;0.59;100.00
13867;BME280;7003;46.982;15.248;2022-11-21T04:35:02;96449.31;;;0.43;100.00
13867;BME280;7003;46.982;15.248;2022-11-21T04:37:30;96439.34;;;0.45;100.00
13867;BME280;7003;46.982;15.248;2022-11-21T04:39:57;96437.91;;;0.57;100.00
13867;BME280;7003;46.982;15.248;2022-11-21T04:42:25;96422.00;;;0.25;100.00
13867;BME280;7003;46.982;15.248;2022-11-21T04:44:52;96421.66;;;0.31;100.00
13867;BME280;7003;46.982;15.248;2022-11-21T04:47:19;96414.06;;;0.35;100.00
13867;BME280;7003;46.982;15.248;2022-11-21T04:49:47;96413.78;;;0.36;100.00
13867;BME280;7003;46.982;15.248;2022-11-21T04:52:16;96419.53;;;0.38;100.00
13867;BME280;7003;46.982;15.248;2022-11-21T04:54:45;96432.31;;;0.40;100.00
13867;BME280;7003;46.982;15.248;2022-11-21T04:57:15;96420.59;;;0.61;100.00
13867;BME280;7003;46.982;15.248;2022-11-21T04:59:45;96414.56;;;0.37;100.00
13867;BME280;7003;46.982;15.248;2022-11-21T05:02:13;96427.50;;;0.23;100.00
13867;BME280;7003;46.982;15.248;2022-11-21T05:04:40;96426.41;;;0.29;100.00
13867;BME280;7003;46.982;15.248;2022-11-21T05:07:07;96419.94;;;0.22;100.00
13867;BME280;7003;46.982;15.248;2022-11-21T05:09:36;96413.88;;;0.26;100.00
13867;BME280;7003;46.982;15.248;2022-11-21T05:12:08;96406.72;;;0.08;100.00
13867;BME280;7003;46.982;15.248;2022-11-21T05:14:54;96403.03;;;0.14;100.00
13867;BME280;7003;46.982;15.248;2022-11-21T05:17:21;96403.75;;;0.20;100.00
13867;BME280;7003;46.982;15.248;2022-11-21T05:19:51;96406.44;;;0.10;100.00
13867;BME280;7003;46.982;15.248;2022-11-21T05:22:18;96396.00;;;0.10;100.00
13867;BME280;7003;46.982;15.248;2022-11-21T05:24:47;96402.69;;;0.21;100.00
13867;BME280;7003;46.982;15.248;2022-11-21T05:27:17;96394.41;;;0.37;100.00
13867;BME280;7003;46.982;15.248;2022-11-21T05:29:44;96401.06;;;0.25;100.00
13867;BME280;7003;46.982;15.248;2022-11-21T05:32:13;96409.66;;;0.30;100.00
13867;BME280;7003;46.982;15.248;2022-11-21T05:34:40;96410.22;;;0.27;100.00
13867;BME280;7003;46.982;15.248;2022-11-21T05:37:09;96414.16;;;0.25;100.00
13867;BME280;7003;46.982;15.248;2022-11-21T05:39:39;96413.53;;;0.33;100.00
13867;BME280;7003;46.982;15.248;2022-11-21T05:42:06;96409.09;;;0.33;100.00
13867;BME280;7003;46.982;15.248;2022-11-21T05:44:35;96412.81;;;0.27;100.00
13867;BME280;7003;46.982;15.248;2022-11-21T05:47:04;96419.56;;;0.33;100.00
13867;BME280;7003;46.982;15.248;2022-11-21T05:49:40;96423.53;;;0.55;100.00
13867;BME280;7003;46.982;15.248;2022-11-21T05:52:07;96418.56;;;0.29;100.00
13867;BME280;7003;46.982;15.248;2022-11-21T05:54:37;96413.88;;;0.26;100.00
13867;BME280;7003;46.982;15.248;2022-11-21T05:57:05;96419.81;;;0.37;100.00
13867;BME280;7003;46.982;15.248;2022-11-21T05:59:35;96415.53;;;0.17;100.00
13867;BME280;7003;46.982;15.248;2022-11-21T06:02:03;96413.16;;;0.21;100.00
13867;BME280;7003;46.982;15.248;2022-11-21T06:04:49;96415.50;;;0.22;100.00
13867;BME280;7003;46.982;15.248;2022-11-21T06:07:17;96411.50;;;0.30;100.00
13867;BME280;7003;46.982;15.248;2022-11-21T06:09:48;96407.47;;;0.14;100.00
13867;BME280;7003;46.982;15.248;2022-11-21T06:12:16;96411.91;;;0.13;100.00
13867;BME280;7003;46.982;15.248;2022-11-21T06:14:45;96417.59;;;0.20;100.00
13867;BME280;7003;46.982;15.248;2022-11-21T06:17:14;96409.94;;;0.29;100.00
13867;BME280;7003;46.982;15.248;2022-11-21T06:19:43;96420.94;;;0.26;100.00
13867;BME280;7003;46.982;15.248;2022-11-21T06:22:14;96418.38;;;0.21;100.00
13867;BME280;7003;46.982;15.248;2022-11-21T06:24:44;96409.44;;;0.27;100.00
13867;BME280;7003;46.982;15.248;2022-11-21T06:27:15;96419.03;;;0.36;100.00
13867;BME280;7003;46.982;15.248;2022-11-21T06:29:44;96416.06;;;0.43;100.00
13867;BME280;7003;46.982;15.248;2022-11-21T06:32:17;96417.13;;;0.42;100.00
13867;BME280;7003;46.982;15.248;2022-11-21T06:34:46;96434.66;;;0.42;100.00
13867;BME280;7003;46.982;15.248;2022-11-21T06:37:17;96407.72;;;0.41;100.00
13867;BME280;7003;46.982;15.248;2022-11-21T06:39:46;96425.47;;;0.44;100.00
13867;BME280;7003;46.982;15.248;2022-11-21T06:42:16;96413.22;;;0.39;100.00
13867;BME280;7003;46.982;15.248;2022-11-21T06:44:45;96420.19;;;0.49;100.00
13867;BME280;7003;46.982;15.248;2022-11-21T06:47:17;96416.84;;;0.44;100.00
13867;BME280;7003;46.982;15.248;2022-11-21T06:49:46;96421.56;;;0.42;100.00
13867;BME280;7003;46.982;15.248;2022-11-21T06:52:17;96423.53;;;0.55;100.00
13867;BME280;7003;46.982;15.248;2022-11-21T06:54:46;96412.59;;;0.48;100.00
13867;BME280;7003;46.982;15.248;2022-11-21T06:57:15;96419.84;;;0.56;100.00
13867;BME280;7003;46.982;15.248;2022-11-21T06:59:44;96408.22;;;0.43;100.00
13867;BME280;7003;46.982;15.248;2022-11-21T07:02:16;96416.69;;;0.59;100.00
13867;BME280;7003;46.982;15.248;2022-11-21T07:04:45;96421.81;;;0.69;100.00
13867;BME280;7003;46.982;15.248;2022-11-21T07:07:18;96419.81;;;0.61;100.00
13867;BME280;7003;46.982;15.248;2022-11-21T07:09:47;96425.97;;;0.70;100.00
13867;BME280;7003;46.982;15.248;2022-11-21T07:12:16;96426.88;;;0.84;100.00
13867;BME280;7003;46.982;15.248;2022-11-21T07:15:02;96429.25;;;0.81;100.00
13867;BME280;7003;46.982;15.248;2022-11-21T07:17:32;96428.44;;;0.85;100.00
13867;BME280;7003;46.982;15.248;2022-11-21T07:20:01;96429.81;;;0.77;100.00
13867;BME280;7003;46.982;15.248;2022-11-21T07:22:31;96435.00;;;0.83;100.00
13867;BME280;7003;46.982;15.248;2022-11-21T07:25:00;96432.66;;;0.81;100.00
13867;BME280;7003;46.982;15.248;2022-11-21T07:27:32;96429.22;;;0.62;100.00
13867;BME280;7003;46.982;15.248;2022-11-21T07:30:01;96420.97;;;0.50;100.00
13867;BME280;7003;46.982;15.248;2022-11-21T07:32:30;96428.44;;;0.61;100.00
13867;BME280;7003;46.982;15.248;2022-11-21T07:34:59;96424.09;;;0.75;100.00
13867;BME280;7003;46.982;15.248;2022-11-21T07:37:38;96417.38;;;0.69;100.00
13867;BME280;7003;46.982;15.248;2022-11-21T07:40:11;96418.19;;;0.65;100.00
13867;BME280;7003;46.982;15.248;2022-11-21T07:42:43;96423.03;;;0.76;100.00
13867;BME280;7003;46.982;15.248;2022-11-21T07:45:13;96424.97;;;0.66;100.00
13867;BME280;7003;46.982;15.248;2022-11-21T07:47:42;96425.88;;;0.80;100.00
13867;BME280;7003;46.982;15.248;2022-11-21T07:50:12;96429.50;;;0.84;100.00
13867;BME280;7003;46.982;15.248;2022-11-21T07:52:42;96418.72;;;0.86;100.00
13867;BME280;7003;46.982;15.248;2022-11-21T07:55:12;96422.09;;;0.91;100.00
13867;BME280;7003;46.982;15.248;2022-11-21T07:57:42;96420.84;;;1.07;100.00
13867;BME280;7003;46.982;15.248;2022-11-21T08:00:12;96418.56;;;1.20;100.00
13867;BME280;7003;46.982;15.248;2022-11-21T08:02:41;96418.81;;;1.23;100.00
13867;BME280;7003;46.982;15.248;2022-11-21T08:05:10;96420.00;;;1.31;100.00
13867;BME280;7003;46.982;15.248;2022-11-21T08:07:41;96423.69;;;1.30;100.00
13867;BME280;7003;46.982;15.248;2022-11-21T08:10:12;96433.69;;;1.46;100.00
13867;BME280;7003;46.982;15.248;2022-11-21T08:12:41;96424.66;;;1.34;100.00
13867;BME280;7003;46.982;15.248;2022-11-21T08:15:12;96426.44;;;1.38;100.00
13867;BME280;7003;46.982;15.248;2022-11-21T08:17:41;96425.28;;;1.26;100.00
13867;BME280;7003;46.982;15.248;2022-11-21T08:20:10;96411.91;;;1.27;100.00
13867;BME280;7003;46.982;15.248;2022-11-21T08:22:42;96402.84;;;1.20;100.00
13867;BME280;7003;46.982;15.248;2022-11-21T08:25:11;96404.34;;;1.26;100.00
13867;BME280;7003;46.982;15.248;2022-11-21T08:27:42;96399.53;;;1.51;100.00
13867;BME280;7003;46.982;15.248;2022-11-21T08:30:11;96404.69;;;1.57;100.00
13867;BME280;7003;46.982;15.248;2022-11-21T08:32:42;96400.72;;;1.59;100.00
13867;BME280;7003;46.982;15.248;2022-11-21T08:35:10;96398.75;;;1.70;100.00
13867;BME280;7003;46.982;15.248;2022-11-21T08:37:42;96397.63;;;1.89;100.00
13867;BME280;7003;46.982;15.248;2022-11-21T08:40:11;96412.22;;;1.96;100.00
13867;BME280;7003;46.982;15.248;2022-11-21T08:42:39;96400.50;;;2.07;100.00
13867;BME280;7003;46.982;15.248;2022-11-21T08:45:10;96408.22;;;2.30;100.00
13867;BME280;7003;46.982;15.248;2022-11-21T08:47:38;96411.63;;;2.31;100.00
13867;BME280;7003;46.982;15.248;2022-11-21T08:50:08;96411.44;;;2.41;100.00
13867;BME280;7003;46.982;15.248;2022-11-21T08:52:38;96404.94;;;2.39;100.00
13867;BME280;7003;46.982;15.248;2022-11-21T08:55:09;96403.09;;;2.66;100.00
13867;BME280;7003;46.982;15.248;2022-11-21T08:57:41;96398.44;;;2.77;100.00
13867;BME280;7003;46.982;15.248;2022-11-21T09:00:10;96395.78;;;2.91;100.00
13867;BME280;7003;46.982;15.248;2022-11-21T09:02:39;96397.41;;;3.14;100.00
13867;BME280;7003;46.982;15.248;2022-11-21T09:05:07;96394.34;;;3.34;100.00
13867;BME280;7003;46.982;15.248;2022-11-21T09:07:36;96392.97;;;3.37;100.00
13867;BME280;7003;46.982;15.248;2022-11-21T09:10:09;96392.94;;;3.51;100.00
13867;BME280;7003;46.982;15.248;2022-11-21T09:12:37;96391.72;;;3.57;100.00
13867;BME280;7003;46.982;15.248;2022-11-21T09:15:09;96401.19;;;4.02;100.00
13867;BME280;7003;46.982;15.248;2022-11-21T09:17:55;96393.69;;;4.49;100.00
13867;BME280;7003;46.982;15.248;2022-11-21T09:20:30;96392.59;;;4.41;100.00
13867;BME280;7003;46.982;15.248;2022-11-21T09:23:03;96393.47;;;4.76;100.00
13867;BME280;7003;46.982;15.248;2022-11-21T09:25:33;96397.13;;;5.06;100.00
13867;BME280;7003;46.982;15.248;2022-11-21T09:28:03;96392.22;;;5.56;100.00
13867;BME280;7003;46.982;15.248;2022-11-21T09:30:35;96399.03;;;5.66;100.00
13867;BME280;7003;46.982;15.248;2022-11-21T09:33:05;96386.31;;;5.68;100.00
13867;BME280;7003;46.982;15.248;2022-11-21T09:35:36;96385.38;;;6.07;100.00
13867;BME280;7003;46.982;15.248;2022-11-21T09:38:04;96389.78;;;6.79;100.00
13867;BME280;7003;46.982;15.248;2022-11-21T09:40:40;96386.84;;;7.72;100.00
13867;BME280;7003;46.982;15.248;2022-11-21T09:43:25;96385.50;;;8.20;100.00
13867;BME280;7003;46.982;15.248;2022-11-21T09:46:04;96382.94;;;8.56;100.00
13867;BME280;7003;46.982;15.248;2022-11-21T09:48:46;96379.16;;;8.69;100.00
13867;BME280;7003;46.982;15.248;2022-11-21T09:51:18;96375.44;;;8.58;100.00
13867;BME280;7003;46.982;15.248;2022-11-21T09:53:53;96375.38;;;9.31;100.00
13867;BME280;7003;46.982;15.248;2022-11-21T09:56:28;96374.16;;;9.41;100.00
13867;BME280;7003;46.982;15.248;2022-11-21T09:59:06;96366.91;;;9.53;100.00
13867;BME280;7003;46.982;15.248;2022-11-21T10:01:39;96375.16;;;9.24;100.00
13867;BME280;7003;46.982;15.248;2022-11-21T10:04:07;96371.03;;;8.74;100.00
13867;BME280;7003;46.982;15.248;2022-11-21T10:06:41;96375.28;;;8.09;100.00
13867;BME280;7003;46.982;15.248;2022-11-21T10:09:20;96374.84;;;7.12;100.00
13867;BME280;7003;46.982;15.248;2022-11-21T10:12:03;96371.66;;;6.69;100.00
13867;BME280;7003;46.982;15.248;2022-11-21T10:14:58;96355.81;;;6.89;100.00
13867;BME280;7003;46.982;15.248;2022-11-21T10:17:38;96352.91;;;6.82;100.00
13867;BME280;7003;46.982;15.248;2022-11-21T10:20:26;96352.34;;;6.77;100.00
13867;BME280;7003;46.982;15.248;2022-11-21T10:23:13;96354.41;;;6.92;100.00
13867;BME280;7003;46.982;15.248;2022-11-21T10:25:51;96345.88;;;6.95;100.00
13867;BME280;7003;46.982;15.248;2022-11-21T10:28:30;96346.38;;;7.30;100.00
13867;BME280;7003;46.982;15.248;2022-11-21T10:31:03;96347.47;;;7.08;100.00
13867;BME280;7003;46.982;15.248;2022-11-21T10:33:36;96344.97;;;7.32;100.00
13867;BME280;7003;46.982;15.248;2022-11-21T10:36:12;96346.78;;;7.41;100.00
13867;BME280;7003;46.982;15.248;2022-11-21T10:38:47;96336.91;;;7.08;100.00
13867;BME280;7003;46.982;15.248;2022-11-21T10:41:20;96338.00;;;7.07;100.00
13867;BME280;7003;46.982;15.248;2022-11-21T10:43:58;96336.78;;;7.46;100.00
13867;BME280;7003;46.982;15.248;2022-11-21T10:46:54;96325.69;;;7.98;100.00
13867;BME280;7003;46.982;15.248;2022-11-21T10:49:24;96320.31;;;8.52;100.00
13867;BME280;7003;46.982;15.248;2022-11-21T10:51:59;96318.41;;;8.52;100.00
13867;BME280;7003;46.982;15.248;2022-11-21T10:54:31;96315.78;;;8.40;100.00
13867;BME280;7003;46.982;15.248;2022-11-21T10:57:01;96314.59;;;9.26;100.00
13867;BME280;7003;46.982;15.248;2022-11-21T10:59:37;96306.50;;;8.34;100.00
13867;BME280;7003;46.982;15.248;2022-11-21T11:02:23;96306.41;;;7.31;100.00
13867;BME280;7003;46.982;15.248;2022-11-21T11:05:19;96304.00;;;6.97;100.00
13867;BME280;7003;46.982;15.248;2022-11-21T11:08:03;96297.13;;;6.75;100.00
13867;BME280;7003;46.982;15.248;2022-11-21T11:10:34;96302.16;;;7.51;100.00
13867;BME280;7003;46.982;15.248;2022-11-21T11:13:11;96300.16;;;8.26;100.00
13867;BME280;7003;46.982;15.248;2022-11-21T11:16:04;96296.75;;;8.86;100.00
13867;BME280;7003;46.982;15.248;2022-11-21T11:18:36;96298.72;;;9.70;100.00
13867;BME280;7003;46.982;15.248;2022-11-21T11:21:15;96284.44;;;9.74;100.00
13867;BME280;7003;46.982;15.248;2022-11-21T11:23:45;96280.75;;;11.08;100.00
13867;BME280;7003;46.982;15.248;2022-11-21T11:26:25;96287.63;;;10.90;100.00
13867;BME280;7003;46.982;15.248;2022-11-21T11:29:07;96279.31;;;11.49;100.00
13867;BME280;7003;46.982;15.248;2022-11-21T11:31:43;96275.34;;;12.01;100.00
13867;BME280;7003;46.982;15.248;2022-11-21T11:34:16;96279.75;;;12.35;100.00
13867;BME280;7003;46.982;15.248;2022-11-21T11:37:08;96277.25;;;12.72;100.00
13867;BME280;7003;46.982;15.248;2022-11-21T11:39:42;96274.19;;;12.47;100.00
13867;BME280;7003;46.982;15.248;2022-11-21T11:42:39;96258.59;;;13.02;100.00
13867;BME280;7003;46.982;15.248;2022-11-21T11:45:40;96263.72;;;14.14;100.00
13867;BME280;7003;46.982;15.248;2022-11-21T11:48:30;96261.69;;;14.45;100.00
13867;BME280;7003;46.982;15.248;2022-11-21T11:51:03;96263.81;;;14.29;100.00
13867;BME280;7003;46.982;15.248;2022-11-21T11:53:40;96261.84;;;15.35;98.32
13867;BME280;7003;46.982;15.248;2022-11-21T11:56:17;96257.06;;;15.94;93.40
13867;BME280;7003;46.982;15.248;2022-11-21T11:58:50;96255.53;;;16.00;80.11
13867;BME280;7003;46.982;15.248;2022-11-21T12:01:23;96252.19;;;15.20;77.25
13867;BME280;7003;46.982;15.248;2022-11-21T12:03:58;96239.06;;;15.87;85.46
13867;BME280;7003;46.982;15.248;2022-11-21T12:06:33;96245.53;;;15.83;78.51
13867;BME280;7003;46.982;15.248;2022-11-21T12:09:09;96240.22;;;16.04;76.10
13867;BME280;7003;46.982;15.248;2022-11-21T12:11:50;96238.84;;;14.58;76.05
13867;BME280;7003;46.982;15.248;2022-11-21T12:14:46;96232.72;;;15.33;72.20
13867;BME280;7003;46.982;15.248;2022-11-21T12:17:39;96234.84;;;15.90;73.40
13867;BME280;7003;46.982;15.248;2022-11-21T12:20:18;96232.94;;;16.08;64.33
13867;BME280;7003;46.982;15.248;2022-11-21T12:22:49;96233.31;;;16.52;61.69
13867;BME280;7003;46.982;15.248;2022-11-21T12:25:22;96224.88;;;16.58;60.79
13867;BME280;7003;46.982;15.248;2022-11-21T12:27:54;96227.19;;;16.52;63.72
13867;BME280;7003;46.982;15.248;2022-11-21T12:30:49;96227.19;;;16.66;61.29
13867;BME280;7003;46.982;15.248;2022-11-21T12:33:26;96225.66;;;16.69;69.25
13867;BME280;7003;46.982;15.248;2022-11-21T12:36:18;96224.16;;;16.61;69.37
13867;BME280;7003;46.982;15.248;2022-11-21T12:39:17;96228.34;;;16.08;70.02
13867;BME280;7003;46.982;15.248;2022-11-21T12:41:52;96227.56;;;16.18;70.67
13867;BME280;7003;46.982;15.248;2022-11-21T12:44:55;96205.72;;;16.20;70.08
13867;BME280;7003;46.982;15.248;2022-11-21T12:47:57;96203.06;;;16.09;69.54
13867;BME280;7003;46.982;15.248;2022-11-21T12:50:54;96203.81;;;15.92;67.40
13867;BME280;7003;46.982;15.248;2022-11-21T12:53:55;96198.44;;;15.82;65.78
13867;BME280;7003;46.982;15.248;2022-11-21T12:56:54;96201.50;;;15.98;64.64
13867;BME280;7003;46.982;15.248;2022-11-21T12:59:30;96200.34;;;15.88;63.46
13867;BME280;7003;46.982;15.248;2022-11-21T13:02:12;96195.34;;;15.65;61.11
13867;BME280;7003;46.982;15.248;2022-11-21T13:04:47;96194.19;;;15.56;61.99
13867;BME280;7003;46.982;15.248;2022-11-21T13:07:17;96191.06;;;15.50;62.56
13867;BME280;7003;46.982;15.248;2022-11-21T13:09:52;96185.63;;;15.22;63.18
13867;BME280;7003;46.982;15.248;2022-11-21T13:12:28;96193.94;;;14.92;62.66
13867;BME280;7003;46.982;15.248;2022-11-21T13:15:08;96192.97;;;14.59;65.04
13867;BME280;7003;46.982;15.248;2022-11-21T13:17:45;96192.06;;;14.38;66.17
13867;BME280;7003;46.982;15.248;2022-11-21T13:20:21;96185.63;;;13.98;67.46
13867;BME280;7003;46.982;15.248;2022-11-21T13:22:56;96193.41;;;13.33;67.89
13867;BME280;7003;46.982;15.248;2022-11-21T13:25:38;96194.38;;;12.88;68.04
13867;BME280;7003;46.982;15.248;2022-11-21T13:28:37;96194.91;;;12.18;75.25